sensor_id;sensor_type;location;lat;lon;timestamp;P1;P2;P0
57798;PMS7003;43626;53.866;30.298;2023-12-04T00:02:00;24.2;18.8;9.6
57798;PMS7003;43626;53.866;30.298;2023-12-04T00:06:22;23.2;19;9.6
57798;PMS7003;43626;53.866;30.298;2023-12-04T00:11:36;27;20.8;9.6
57798;PMS7003;43626;53.866;30.298;2023-12-04T00:16:20;22.4;17.8;10
57798;PMS7003;43626;53.866;30.298;2023-12-04T00:21:20;22.6;17.8;9.2
57798;PMS7003;43626;53.866;30.298;2023-12-04T00:26:34;25.8;18.4;10.6
57798;PMS7003;43626;53.866;30.298;2023-12-04T00:31:48;23.6;18.2;9.8
57798;PMS7003;43626;53.866;30.298;2023-12-04T00:36:58;22.8;19;10.3
57798;PMS7003;43626;53.866;30.298;2023-12-04T00:41:20;21.8;18.4;9.2
57798;PMS7003;43626;53.866;30.298;2023-12-04T00:46:56;23.2;18.2;9
57798;PMS7003;43626;53.866;30.298;2023-12-04T00:51:24;24;19;9.2
57798;PMS7003;43626;53.866;30.298;2023-12-04T00:56:42;24.2;19.6;9.8
57798;PMS7003;43626;53.866;30.298;2023-12-04T01:01:38;21.8;17.4;9.6
57798;PMS7003;43626;53.866;30.298;2023-12-04T01:06:30;25;20.6;9.4
57798;PMS7003;43626;53.866;30.298;2023-12-04T01:12:00;32.6;24.8;12.6
57798;PMS7003;43626;53.866;30.298;2023-12-04T01:16:42;35.6;28.4;14
57798;PMS7003;43626;53.866;30.298;2023-12-04T01:22:00;36;30.6;15
57798;PMS7003;43626;53.866;30.298;2023-12-04T01:27:00;37.6;27.8;14.6
57798;PMS7003;43626;53.866;30.298;2023-12-04T01:31:24;37.6;31;16.2
57798;PMS7003;43626;53.866;30.298;2023-12-04T01:36:28;34;25.5;13.5
57798;PMS7003;43626;53.866;30.298;2023-12-04T01:42:02;34.2;27;13.6
57798;PMS7003;43626;53.866;30.298;2023-12-04T01:46:20;33.2;24.6;12.8
57798;PMS7003;43626;53.866;30.298;2023-12-04T01:51:28;31.4;27;12.4
57798;PMS7003;43626;53.866;30.298;2023-12-04T01:56:20;39.2;29.6;13.6
57798;PMS7003;43626;53.866;30.298;2023-12-04T02:01:20;33.8;27;15.2
57798;PMS7003;43626;53.866;30.298;2023-12-04T02:06:28;31.2;23.2;12.2
57798;PMS7003;43626;53.866;30.298;2023-12-04T02:11:50;31.4;23.6;11.4
57798;PMS7003;43626;53.866;30.298;2023-12-04T02:17:02;31.2;24.4;12.4
57798;PMS7003;43626;53.866;30.298;2023-12-04T02:21:36;32;24.2;13
57798;PMS7003;43626;53.866;30.298;2023-12-04T02:26:22;31.2;26.2;13.2
57798;PMS7003;43626;53.866;30.298;2023-12-04T02:31:22;38.8;29.4;15.6
57798;PMS7003;43626;53.866;30.298;2023-12-04T02:36:42;45.4;34.6;16.6
57798;PMS7003;43626;53.866;30.298;2023-12-04T02:41:24;44;32;15.5
57798;PMS7003;43626;53.866;30.298;2023-12-04T02:46:20;40.6;31.6;16.4
57798;PMS7003;43626;53.866;30.298;2023-12-04T02:51:40;42;30.6;14.8
57798;PMS7003;43626;53.866;30.298;2023-12-04T02:56:48;36.2;27;13.6
57798;PMS7003;43626;53.866;30.298;2023-12-04T03:01:58;29.8;23.8;12.2
57798;PMS7003;43626;53.866;30.298;2023-12-04T03:06:56;34.6;28.6;13.2
57798;PMS7003;43626;53.866;30.298;2023-12-04T03:11:20;33.2;27;13.8
57798;PMS7003;43626;53.866;30.298;2023-12-04T03:17:02;33.2;26;13.6
57798;PMS7003;43626;53.866;30.298;2023-12-04T03:21:30;33.6;26.6;13.6
57798;PMS7003;43626;53.866;30.298;2023-12-04T03:26:58;32.4;26.4;13.2
57798;PMS7003;43626;53.866;30.298;2023-12-04T03:31:20;36.8;27;14
57798;PMS7003;43626;53.866;30.298;2023-12-04T03:36:20;33.8;26;13.8
57798;PMS7003;43626;53.866;30.298;2023-12-04T03:41:28;36.8;27.3;13.8
57798;PMS7003;43626;53.866;30.298;2023-12-04T03:46:22;33.6;25.6;13.6
57798;PMS7003;43626;53.866;30.298;2023-12-04T03:51:20;34.6;27.8;15
57798;PMS7003;43626;53.866;30.298;2023-12-04T03:56:46;36;28.4;14
57798;PMS7003;43626;53.866;30.298;2023-12-04T04:01:50;41.4;31.6;16
57798;PMS7003;43626;53.866;30.298;2023-12-04T04:07:02;38.4;31.6;16.8
57798;PMS7003;43626;53.866;30.298;2023-12-04T04:12:02;59.6;42.4;20.6
57798;PMS7003;43626;53.866;30.298;2023-12-04T04:16:50;46.4;36.6;17.8
57798;PMS7003;43626;53.866;30.298;2023-12-04T04:22:02;38;30;15.4
57798;PMS7003;43626;53.866;30.298;2023-12-04T04:26:28;37;26.8;11.6
57798;PMS7003;43626;53.866;30.298;2023-12-04T04:31:42;81;61.2;35.2
57798;PMS7003;43626;53.866;30.298;2023-12-04T04:36:50;65.2;47;27
57798;PMS7003;43626;53.866;30.298;2023-12-04T04:42:00;61.5;45.5;26.5
57798;PMS7003;43626;53.866;30.298;2023-12-04T04:46:40;63.4;46.6;26.2
57798;PMS7003;43626;53.866;30.298;2023-12-04T04:51:27;61.2;48;28.6
57798;PMS7003;43626;53.866;30.298;2023-12-04T04:57:02;63.4;46.8;26.4
57798;PMS7003;43626;53.866;30.298;2023-12-04T05:01:40;68.4;50.6;27.8
57798;PMS7003;43626;53.866;30.298;2023-12-04T05:06:46;91.4;65.2;36
57798;PMS7003;43626;53.866;30.298;2023-12-04T05:11:20;88.8;65.8;36.8
57798;PMS7003;43626;53.866;30.298;2023-12-04T05:17:00;95.4;69.2;37.8
57798;PMS7003;43626;53.866;30.298;2023-12-04T05:21:26;112.4;81.6;43.8
57798;PMS7003;43626;53.866;30.298;2023-12-04T05:26:22;110.4;83.6;45
57798;PMS7003;43626;53.866;30.298;2023-12-04T05:31:20;98;70;37.8
57798;PMS7003;43626;53.866;30.298;2023-12-04T05:37:00;93.2;66.8;37.6
57798;PMS7003;43626;53.866;30.298;2023-12-04T05:41:32;92;64.8;35.3
57798;PMS7003;43626;53.866;30.298;2023-12-04T05:47:00;94.6;67;37.2
57798;PMS7003;43626;53.866;30.298;2023-12-04T05:52:00;95.4;68.8;38
57798;PMS7003;43626;53.866;30.298;2023-12-04T05:56:44;104.6;75;39.6
57798;PMS7003;43626;53.866;30.298;2023-12-04T06:02:02;99.2;71.6;38.6
57798;PMS7003;43626;53.866;30.298;2023-12-04T06:06:42;101.6;79.6;44.4
57798;PMS7003;43626;53.866;30.298;2023-12-04T06:11:30;95;68.2;37.6
57798;PMS7003;43626;53.866;30.298;2023-12-04T06:16:50;86.8;63.8;37
57798;PMS7003;43626;53.866;30.298;2023-12-04T06:22:02;72.2;53.6;29
57798;PMS7003;43626;53.866;30.298;2023-12-04T06:26:58;66;49.2;28
57798;PMS7003;43626;53.866;30.298;2023-12-04T06:31:38;40;32.2;17.4
57798;PMS7003;43626;53.866;30.298;2023-12-04T06:37:00;48.6;37.8;19.4
57798;PMS7003;43626;53.866;30.298;2023-12-04T06:41:24;79.5;56.8;31.8
57798;PMS7003;43626;53.866;30.298;2023-12-04T06:46:36;75.4;57;30.8
57798;PMS7003;43626;53.866;30.298;2023-12-04T06:51:38;61;45.2;25.8
57798;PMS7003;43626;53.866;30.298;2023-12-04T06:56:24;67.2;49.4;26.8
57798;PMS7003;43626;53.866;30.298;2023-12-04T07:01:48;80.2;56.2;31.2
57798;PMS7003;43626;53.866;30.298;2023-12-04T07:06:48;87.2;63.6;36
57798;PMS7003;43626;53.866;30.298;2023-12-04T07:11:20;94.8;68.4;38.4
57798;PMS7003;43626;53.866;30.298;2023-12-04T07:16:20;101.8;77;41.6
57798;PMS7003;43626;53.866;30.298;2023-12-04T07:21:58;99.4;72.2;40.2
57798;PMS7003;43626;53.866;30.298;2023-12-04T07:27:02;106;80.6;42.6
57798;PMS7003;43626;53.866;30.298;2023-12-04T07:32:02;133.2;98.4;48.8
57798;PMS7003;43626;53.866;30.298;2023-12-04T07:36:20;162;126.2;61
57798;PMS7003;43626;53.866;30.298;2023-12-04T07:41:58;154.3;118.8;57
57798;PMS7003;43626;53.866;30.298;2023-12-04T07:46:20;159.8;118.6;58.6
57798;PMS7003;43626;53.866;30.298;2023-12-04T07:51:38;149;118.2;60
57798;PMS7003;43626;53.866;30.298;2023-12-04T07:56:48;146.8;115.4;59.2
57798;PMS7003;43626;53.866;30.298;2023-12-04T08:01:28;163.4;127.8;64
57798;PMS7003;43626;53.866;30.298;2023-12-04T08:06:28;157.6;121.8;59.2
57798;PMS7003;43626;53.866;30.298;2023-12-04T08:11:50;148.4;114.6;57.6
57798;PMS7003;43626;53.866;30.298;2023-12-04T08:17:00;106.8;84.8;43.6
57798;PMS7003;43626;53.866;30.298;2023-12-04T08:21:56;84.4;62.8;34.4
57798;PMS7003;43626;53.866;30.298;2023-12-04T08:26:54;123.4;97.8;48.2
57798;PMS7003;43626;53.866;30.298;2023-12-04T08:31:20;101.2;82.6;43.4
57798;PMS7003;43626;53.866;30.298;2023-12-04T08:36:20;116.8;89.6;46.8
57798;PMS7003;43626;53.866;30.298;2023-12-04T08:41:20;118.8;95.6;49.4
57798;PMS7003;43626;53.866;30.298;2023-12-04T08:46:26;130.3;101;52.8
57798;PMS7003;43626;53.866;30.298;2023-12-04T08:51:24;110.4;91.4;46.4
57798;PMS7003;43626;53.866;30.298;2023-12-04T08:56:20;122.2;99.4;52.6
57798;PMS7003;43626;53.866;30.298;2023-12-04T09:01:28;95.4;73;41.6
57798;PMS7003;43626;53.866;30.298;2023-12-04T09:07:00;69.2;53;32.8
57798;PMS7003;43626;53.866;30.298;2023-12-04T09:11:58;73.2;56.2;35.6
57798;PMS7003;43626;53.866;30.298;2023-12-04T09:16:38;74.6;55.4;34.4
57798;PMS7003;43626;53.866;30.298;2023-12-04T09:21:56;57.4;44.4;26.2
57798;PMS7003;43626;53.866;30.298;2023-12-04T09:26:22;52.8;40.2;23.6
57798;PMS7003;43626;53.866;30.298;2023-12-04T09:31:22;49.4;36.6;19.4
57798;PMS7003;43626;53.866;30.298;2023-12-04T09:37:00;51;38.2;21.8
57798;PMS7003;43626;53.866;30.298;2023-12-04T09:41:28;68.4;51.8;30.2
57798;PMS7003;43626;53.866;30.298;2023-12-04T09:47:00;58;44.3;23.8
57798;PMS7003;43626;53.866;30.298;2023-12-04T09:51:20;58;43.8;24.4
57798;PMS7003;43626;53.866;30.298;2023-12-04T09:57:00;55.4;40.4;21
57798;PMS7003;43626;53.866;30.298;2023-12-04T10:02:00;55.2;40;22.4
57798;PMS7003;43626;53.866;30.298;2023-12-04T10:06:56;48.8;37;20.2
57798;PMS7003;43626;53.866;30.298;2023-12-04T10:11:26;53.4;39.8;20.6
57798;PMS7003;43626;53.866;30.298;2023-12-04T10:16:36;55.6;40.6;20.8
57798;PMS7003;43626;53.866;30.298;2023-12-04T10:21:31;55.6;40.8;22.2
57798;PMS7003;43626;53.866;30.298;2023-12-04T10:26:20;61.6;43.8;23.2
57798;PMS7003;43626;53.866;30.298;2023-12-04T10:31:20;50.6;38.4;20.4
57798;PMS7003;43626;53.866;30.298;2023-12-04T10:36:38;52;38.4;19.8
57798;PMS7003;43626;53.866;30.298;2023-12-04T10:41:58;49.4;38.2;20.8
57798;PMS7003;43626;53.866;30.298;2023-12-04T10:47:00;45;35.5;19
57798;PMS7003;43626;53.866;30.298;2023-12-04T10:51:58;49;37.4;20.2
57798;PMS7003;43626;53.866;30.298;2023-12-04T10:56:30;51.2;36.8;18.8
57798;PMS7003;43626;53.866;30.298;2023-12-04T11:01:58;53.4;39;19.8
57798;PMS7003;43626;53.866;30.298;2023-12-04T11:06:32;53.4;40.4;20.6
57798;PMS7003;43626;53.866;30.298;2023-12-04T11:11:33;52.8;40.2;21.2
57798;PMS7003;43626;53.866;30.298;2023-12-04T11:16:51;54.6;40.4;21.2
57798;PMS7003;43626;53.866;30.298;2023-12-04T11:21:30;50.6;38;20.4
57798;PMS7003;43626;53.866;30.298;2023-12-04T11:26:20;53;40;20
57798;PMS7003;43626;53.866;30.298;2023-12-04T11:31:46;52.4;37.4;20
57798;PMS7003;43626;53.866;30.298;2023-12-04T11:37:00;50.2;38;20.4
57798;PMS7003;43626;53.866;30.298;2023-12-04T11:42:01;53.2;38.8;20.8
57798;PMS7003;43626;53.866;30.298;2023-12-04T11:46:58;51.3;38;21.3
57798;PMS7003;43626;53.866;30.298;2023-12-04T11:51:51;52.8;38.2;20.4
57798;PMS7003;43626;53.866;30.298;2023-12-04T11:56:22;48;36;19
57798;PMS7003;43626;53.866;30.298;2023-12-04T12:01:20;53.6;39;20.6
57798;PMS7003;43626;53.866;30.298;2023-12-04T12:06:24;48.8;37.2;19.8
57798;PMS7003;43626;53.866;30.298;2023-12-04T12:11:20;49;37.2;20
57798;PMS7003;43626;53.866;30.298;2023-12-04T12:16:42;50.8;38.6;21.4
57798;PMS7003;43626;53.866;30.298;2023-12-04T12:21:30;49.4;36.4;20.4
57798;PMS7003;43626;53.866;30.298;2023-12-04T12:26:48;42.6;34.4;19.4
57798;PMS7003;43626;53.866;30.298;2023-12-04T12:32:00;45.2;34.6;19.2
57798;PMS7003;43626;53.866;30.298;2023-12-04T12:36:46;43.8;35;19
57798;PMS7003;43626;53.866;30.298;2023-12-04T12:41:56;48.6;36.6;19.4
57798;PMS7003;43626;53.866;30.298;2023-12-04T12:46:22;43.8;34.8;18.8
57798;PMS7003;43626;53.866;30.298;2023-12-04T12:51:42;40;33;18.4
57798;PMS7003;43626;53.866;30.298;2023-12-04T12:56:32;43.8;32.4;17
57798;PMS7003;43626;53.866;30.298;2023-12-04T13:01:22;38.6;31.2;15.8
57798;PMS7003;43626;53.866;30.298;2023-12-04T13:07:00;36.2;29.4;15.8
57798;PMS7003;43626;53.866;30.298;2023-12-04T13:11:32;40;32.8;16.4
57798;PMS7003;43626;53.866;30.298;2023-12-04T13:17:02;40.2;33;17.6
57798;PMS7003;43626;53.866;30.298;2023-12-04T13:22:02;43.2;31.6;17.4
57798;PMS7003;43626;53.866;30.298;2023-12-04T13:26:38;42.8;31.6;16.2
57798;PMS7003;43626;53.866;30.298;2023-12-04T13:31:38;42.2;33.4;17
57798;PMS7003;43626;53.866;30.298;2023-12-04T13:37:02;42.2;31.8;15.4
57798;PMS7003;43626;53.866;30.298;2023-12-04T13:41:34;38.2;29;15.8
57798;PMS7003;43626;53.866;30.298;2023-12-04T13:46:20;37.2;29.8;16.6
57798;PMS7003;43626;53.866;30.298;2023-12-04T13:51:38;39.5;30.5;16.5
57798;PMS7003;43626;53.866;30.298;2023-12-04T13:56:42;36.6;29.6;15.6
57798;PMS7003;43626;53.866;30.298;2023-12-04T14:01:20;40.6;33;16.6
57798;PMS7003;43626;53.866;30.298;2023-12-04T14:06:50;46.8;36.4;19
57798;PMS7003;43626;53.866;30.298;2023-12-04T14:12:02;45.6;35;18.4
57798;PMS7003;43626;53.866;30.298;2023-12-04T14:16:56;45.4;33.6;17
57798;PMS7003;43626;53.866;30.298;2023-12-04T14:21:40;49;34.6;18.4
57798;PMS7003;43626;53.866;30.298;2023-12-04T14:26:50;51;38.2;18.6
57798;PMS7003;43626;53.866;30.298;2023-12-04T14:31:30;50.4;38.4;20
57798;PMS7003;43626;53.866;30.298;2023-12-04T14:36:22;53.4;40;19.6
57798;PMS7003;43626;53.866;30.298;2023-12-04T14:41:40;47;36.2;18.8
57798;PMS7003;43626;53.866;30.298;2023-12-04T14:46:22;46.6;35.8;18.8
57798;PMS7003;43626;53.866;30.298;2023-12-04T14:51:22;50.3;36.5;19.3
57798;PMS7003;43626;53.866;30.298;2023-12-04T14:56:44;53.6;40.2;21.4
57798;PMS7003;43626;53.866;30.298;2023-12-04T15:02:04;45.4;36;19.2
57798;PMS7003;43626;53.866;30.298;2023-12-04T15:07:02;50;38;19.6
57798;PMS7003;43626;53.866;30.298;2023-12-04T15:11:40;51;38.4;21.2
57798;PMS7003;43626;53.866;30.298;2023-12-04T15:17:04;50.8;37.2;20.6
57798;PMS7003;43626;53.866;30.298;2023-12-04T15:21:20;47.8;35;19
57798;PMS7003;43626;53.866;30.298;2023-12-04T15:27:00;49.2;37.4;19.6
57798;PMS7003;43626;53.866;30.298;2023-12-04T15:31:46;41.8;31.2;17
57798;PMS7003;43626;53.866;30.298;2023-12-04T15:36:40;49;38;20.8
57798;PMS7003;43626;53.866;30.298;2023-12-04T15:41:28;47.4;36.6;20
57798;PMS7003;43626;53.866;30.298;2023-12-04T15:46:50;48;36.8;19.8
57798;PMS7003;43626;53.866;30.298;2023-12-04T15:52:04;56;39.8;21.8
57798;PMS7003;43626;53.866;30.298;2023-12-04T15:57:00;53.4;37.8;20
57798;PMS7003;43626;53.866;30.298;2023-12-04T16:01:22;50.2;38.2;19.6
57798;PMS7003;43626;53.866;30.298;2023-12-04T16:06:40;50.2;37;19.8
57798;PMS7003;43626;53.866;30.298;2023-12-04T16:11:44;47.6;35.6;18.6
57798;PMS7003;43626;53.866;30.298;2023-12-04T16:16:48;47.6;36.2;19.8
57798;PMS7003;43626;53.866;30.298;2023-12-04T16:21:38;41.2;31.2;15.6
57798;PMS7003;43626;53.866;30.298;2023-12-04T16:26:42;47.2;34.8;18.2
57798;PMS7003;43626;53.866;30.298;2023-12-04T16:31:50;49.2;36.4;18.2
57798;PMS7003;43626;53.866;30.298;2023-12-04T16:37:04;44;34.6;17.6
57798;PMS7003;43626;53.866;30.298;2023-12-04T16:42:00;44.8;35.2;17
57798;PMS7003;43626;53.866;30.298;2023-12-04T16:46:40;49.4;35.8;18.8
57798;PMS7003;43626;53.866;30.298;2023-12-04T16:52:02;47;36.8;20
57798;PMS7003;43626;53.866;30.298;2023-12-04T16:56:40;45.4;34.8;15.6
57798;PMS7003;43626;53.866;30.298;2023-12-04T17:01:58;41.4;30.8;15.2
57798;PMS7003;43626;53.866;30.298;2023-12-04T17:07:02;45;34.2;18
57798;PMS7003;43626;53.866;30.298;2023-12-04T17:11:20;38.4;33.2;17.6
57798;PMS7003;43626;53.866;30.298;2023-12-04T17:16:20;41.6;33.2;16.4
57798;PMS7003;43626;53.866;30.298;2023-12-04T17:21:22;39.2;29;15.2
57798;PMS7003;43626;53.866;30.298;2023-12-04T17:26:46;40.4;34;17
57798;PMS7003;43626;53.866;30.298;2023-12-04T17:31:20;47.8;34.4;17
57798;PMS7003;43626;53.866;30.298;2023-12-04T17:36:20;43.4;32.6;16.6
57798;PMS7003;43626;53.866;30.298;2023-12-04T17:42:04;46;34;14.8
57798;PMS7003;43626;53.866;30.298;2023-12-04T17:47:00;38.2;29;14.8
57798;PMS7003;43626;53.866;30.298;2023-12-04T17:51:20;40.8;28.3;13.3
57798;PMS7003;43626;53.866;30.298;2023-12-04T17:56:48;34.2;27.8;14.4
57798;PMS7003;43626;53.866;30.298;2023-12-04T18:01:20;41;29.8;13.2
57798;PMS7003;43626;53.866;30.298;2023-12-04T18:06:42;40.2;30;14.4
57798;PMS7003;43626;53.866;30.298;2023-12-04T18:11:50;36.6;29.4;14.2
57798;PMS7003;43626;53.866;30.298;2023-12-04T18:17:02;37.8;29.2;14
57798;PMS7003;43626;53.866;30.298;2023-12-04T18:21:58;35.6;27.4;11.6
57798;PMS7003;43626;53.866;30.298;2023-12-04T18:26:20;35.4;27.8;13
57798;PMS7003;43626;53.866;30.298;2023-12-04T18:32:04;35.8;28.6;14.2
57798;PMS7003;43626;53.866;30.298;2023-12-04T18:37:04;37.2;29.4;13.4
57798;PMS7003;43626;53.866;30.298;2023-12-04T18:42:04;37.8;28.4;13.6
57798;PMS7003;43626;53.866;30.298;2023-12-04T18:46:28;34.6;26.6;12.6
57798;PMS7003;43626;53.866;30.298;2023-12-04T18:51:20;34;26;11.6
57798;PMS7003;43626;53.866;30.298;2023-12-04T18:57:02;33.3;24.3;11.8
57798;PMS7003;43626;53.866;30.298;2023-12-04T19:01:20;32.6;26.6;12.6
57798;PMS7003;43626;53.866;30.298;2023-12-04T19:06:38;32.4;23.8;12.2
57798;PMS7003;43626;53.866;30.298;2023-12-04T19:11:20;36.8;28.6;13
57798;PMS7003;43626;53.866;30.298;2023-12-04T19:16:20;34.4;25;12.6
57798;PMS7003;43626;53.866;30.298;2023-12-04T19:22:02;33;27;14.6
57798;PMS7003;43626;53.866;30.298;2023-12-04T19:27:00;33.8;25.4;12.2
57798;PMS7003;43626;53.866;30.298;2023-12-04T19:31:30;30.2;23.4;11.8
57798;PMS7003;43626;53.866;30.298;2023-12-04T19:37:00;32.4;25.4;12.6
57798;PMS7003;43626;53.866;30.298;2023-12-04T19:41:28;32;24;12
57798;PMS7003;43626;53.866;30.298;2023-12-04T19:46:42;31.8;25.6;13.2
57798;PMS7003;43626;53.866;30.298;2023-12-04T19:51:22;32.4;23.6;11.8
57798;PMS7003;43626;53.866;30.298;2023-12-04T19:57:00;29.3;24;11.8
57798;PMS7003;43626;53.866;30.298;2023-12-04T20:01:57;33.8;25;11.2
57798;PMS7003;43626;53.866;30.298;2023-12-04T20:06:30;30.4;23.4;11.6
57798;PMS7003;43626;53.866;30.298;2023-12-04T20:12:02;33.6;24.2;11.8
57798;PMS7003;43626;53.866;30.298;2023-12-04T20:16:46;31.4;24.2;12.2
57798;PMS7003;43626;53.866;30.298;2023-12-04T20:21:58;30.8;22.6;12.2
57798;PMS7003;43626;53.866;30.298;2023-12-04T20:26:32;29.8;24.4;13
57798;PMS7003;43626;53.866;30.298;2023-12-04T20:31:20;27.4;21.6;11.4
57798;PMS7003;43626;53.866;30.298;2023-12-04T20:37:02;26;21.4;9.8
57798;PMS7003;43626;53.866;30.298;2023-12-04T20:41:28;26.4;21;11
57798;PMS7003;43626;53.866;30.298;2023-12-04T20:46:20;25.2;21.2;11.2
57798;PMS7003;43626;53.866;30.298;2023-12-04T20:51:24;27.8;21.8;10.6
57798;PMS7003;43626;53.866;30.298;2023-12-04T20:56:58;25.5;21;10.8
57798;PMS7003;43626;53.866;30.298;2023-12-04T21:02:02;25.6;21.2;11.2
57798;PMS7003;43626;53.866;30.298;2023-12-04T21:07:02;25.6;20.8;11.4
57798;PMS7003;43626;53.866;30.298;2023-12-04T21:11:46;26.2;21.8;11.6
57798;PMS7003;43626;53.866;30.298;2023-12-04T21:16:58;27.2;21.6;11.2
57798;PMS7003;43626;53.866;30.298;2023-12-04T21:21:30;26.8;19.8;10.6
57798;PMS7003;43626;53.866;30.298;2023-12-04T21:26:40;28.4;21.8;11.2
57798;PMS7003;43626;53.866;30.298;2023-12-04T21:31:30;24.4;20.4;10.6
57798;PMS7003;43626;53.866;30.298;2023-12-04T21:36:30;26.4;20.4;10.4
57798;PMS7003;43626;53.866;30.298;2023-12-04T21:41:22;24.6;19.4;10.8
57798;PMS7003;43626;53.866;30.298;2023-12-04T21:46:30;27.4;20.8;10.6
57798;PMS7003;43626;53.866;30.298;2023-12-04T21:52:02;28.4;21.8;11
57798;PMS7003;43626;53.866;30.298;2023-12-04T21:57:02;25.3;19.3;10
57798;PMS7003;43626;53.866;30.298;2023-12-04T22:01:58;27.2;21.4;11.2
57798;PMS7003;43626;53.866;30.298;2023-12-04T22:06:20;26.8;21.6;11.8
57798;PMS7003;43626;53.866;30.298;2023-12-04T22:11:24;27.2;21.6;10.8
57798;PMS7003;43626;53.866;30.298;2023-12-04T22:16:22;28;22;11
57798;PMS7003;43626;53.866;30.298;2023-12-04T22:22:03;26.2;20.8;11.6
57798;PMS7003;43626;53.866;30.298;2023-12-04T22:26:50;27.6;23;12.4
57798;PMS7003;43626;53.866;30.298;2023-12-04T22:31:20;30;22.2;11.4
57798;PMS7003;43626;53.866;30.298;2023-12-04T22:36:58;28.4;21.4;11.4
57798;PMS7003;43626;53.866;30.298;2023-12-04T22:42:02;27.2;22.2;11.6
57798;PMS7003;43626;53.866;30.298;2023-12-04T22:47:02;32.4;24.8;11.8
57798;PMS7003;43626;53.866;30.298;2023-12-04T22:51:32;28.8;23;11.2
57798;PMS7003;43626;53.866;30.298;2023-12-04T22:56:58;30.4;26;13
57798;PMS7003;43626;53.866;30.298;2023-12-04T23:01:23;29;23;12.8
57798;PMS7003;43626;53.866;30.298;2023-12-04T23:07:02;32;24.6;13.2
57798;PMS7003;43626;53.866;30.298;2023-12-04T23:11:50;28.2;23.2;11.8
57798;PMS7003;43626;53.866;30.298;2023-12-04T23:16:50;26;22;12.8
57798;PMS7003;43626;53.866;30.298;2023-12-04T23:21:48;30;23.8;11.8
57798;PMS7003;43626;53.866;30.298;2023-12-04T23:26:30;27.2;23;12.2
57798;PMS7003;43626;53.866;30.298;2023-12-04T23:32:02;31.6;23.6;12
57798;PMS7003;43626;53.866;30.298;2023-12-04T23:37:02;22.2;20;10
57798;PMS7003;43626;53.866;30.298;2023-12-04T23:41:22;24.2;20.6;10.6
57798;PMS7003;43626;53.866;30.298;2023-12-04T23:46:20;27.6;22.4;11.6
57798;PMS7003;43626;53.866;30.298;2023-12-04T23:51:28;24.6;19.4;11
57798;PMS7003;43626;53.866;30.298;2023-12-04T23:56:28;26.2;21.4;11.2
